Flight Track Log - Related Links

Times and Time Zones

All times are in EDT time to prevent confusion due to time zone crossing. See the JAL89 flight status page for this flight to view local times or setup timezone preferences in your user account.


Time Position Orientation Groundspeed Altitude Reporting Facility
EDT Latitude Longitude Course Direction KTS MPH feet Rate Location/Type
Sun 12:33:32 AM 21.6881 -159.1597 125° Southeast  Level FlightAware Approximate
Sun 12:34:15 AM 21.4167 -158.7500 293° West 420 483 20,000  Level Honolulu Center
Sun 12:39:17 AM 21.6667 -159.3833 292° West 480 552 27,900 1,591 Climbing Honolulu Center
Sun 12:40:17 AM 21.7167 -159.5167 292° West 480 552 29,600 1,388 Climbing Honolulu Center
Sun 12:41:18 AM 21.7667 -159.6500 295° West 490 564 30,700 1,537 Climbing Honolulu Center
Sun 12:42:18 AM 21.8167 -159.7667 292° West 480 552 32,700 1,785 Climbing Honolulu Center
Sun 12:43:19 AM 21.8667 -159.9000 292° West 480 552 34,300 1,636 Climbing Honolulu Center
Sun 12:44:19 AM 21.9167 -160.0333 292° West 470 541 36,000 850 Climbing Honolulu Center
Sun 12:45:19 AM 21.9667 -160.1667 292° West 460 529 36,000  Level Honolulu Center
Sun 12:46:20 AM 22.0167 -160.3000 293° West 470 541 36,000  Level Honolulu Center
Sun 12:49:21 AM 22.1667 -160.6833 293° West 470 541 36,000  Level Honolulu Center
Sun 12:52:22 AM 22.3167 -161.0667 291° West 470 541 36,000  Level Honolulu Center
Sun 01:13:27 AM 23.2667 -163.8500 297° West 463 533 36,000  Level Oakland Oceanic (ODAPS)
Sun 01:26:10 AM 24.0167 -165.4667 297° West 466 536 36,000  Level Oakland Oceanic (ODAPS)
Sun 01:52:50 AM 25.5333 -168.9167 296° West 467 537 36,000  Level Oakland Oceanic (ODAPS)
Sun 02:01:19 AM 26.0000 -170.0000 297° West 466 536 36,000 30 Level Oakland Oceanic (ODAPS)
Sun 02:46:17 AM 28.4833 -175.9167 294° West 463 533 37,600 28 Climbing Oakland Oceanic (ODAPS)
Sun 03:12:57 AM 29.8167 -179.4833 292° West 461 531 38,000 13 Climbing Oakland Oceanic (ODAPS)
Sun 03:16:47 AM 30.0000 180.0000 286° West 460 529 38,000  Level Oakland Oceanic (ODAPS)
Sun 03:39:46 AM 30.7500 176.7167 284° West 471 542 38,000  Level Oakland Oceanic (ODAPS)
Sun 04:06:13 AM 31.5500 172.6500 282° West 464 534 38,000  Level Oakland Oceanic (ODAPS)
Sun 04:24:27 AM 32.0000 170.0000 280° West 443 510 38,000  Level Oakland Oceanic (ODAPS)
Sun 04:32:53 AM 32.1667 168.7833 278° West 441 507 38,000  Level Oakland Oceanic (ODAPS)
Sun 04:33:32 AM 32.1824 168.6523 279° West 443 510 38,000  Level FlightAware Transoceanic
Sun 04:34:32 AM 32.2007 168.5107 279° West 443 510 38,000  Level FlightAware Transoceanic
Sun 04:35:32 AM 32.2189 168.3690 279° West 443 510 38,000  Level FlightAware Transoceanic
Sun 04:36:32 AM 32.2369 168.2272 279° West 443 510 38,000  Level FlightAware Transoceanic
Sun 04:40:32 AM 32.3025 167.7082 278° West 441 507 38,000  Level FlightAware Transoceanic
Sun 04:41:32 AM 32.3198 167.5653 278° West 441 507 38,000  Level FlightAware Transoceanic
Sun 04:42:32 AM 32.3370 167.4223 278° West 441 507 38,000  Level FlightAware Transoceanic
Sun 04:43:32 AM 32.3540 167.2792 278° West 441 507 38,000  Level FlightAware Transoceanic
Sun 04:44:32 AM 32.3709 167.1361 278° West 441 507 38,000  Level FlightAware Transoceanic
Sun 04:45:32 AM 32.3876 166.9929 278° West 441 507 38,000  Level FlightAware Transoceanic
Sun 04:46:32 AM 32.4041 166.8497 278° West 441 507 38,000  Level FlightAware Transoceanic
Sun 04:47:32 AM 32.4205 166.7064 278° West 441 507 38,000  Level FlightAware Transoceanic
Sun 04:48:32 AM 32.4367 166.5631 278° West 441 507 38,000  Level FlightAware Transoceanic
Sun 04:49:32 AM 32.4527 166.4197 278° West 441 507 38,000  Level FlightAware Transoceanic
Sun 04:50:32 AM 32.4686 166.2763 277° West 441 507 38,000  Level FlightAware Transoceanic
Sun 04:51:32 AM 32.4843 166.1328 277° West 441 507 38,000  Level FlightAware Transoceanic
Sun 04:52:32 AM 32.4999 165.9893 277° West 441 507 38,000  Level FlightAware Transoceanic
Sun 04:53:32 AM 32.5153 165.8457 277° West 441 507 38,000  Level FlightAware Transoceanic
Sun 04:54:32 AM 32.5305 165.7021 277° West 441 507 38,000  Level FlightAware Transoceanic
Sun 04:55:32 AM 32.5456 165.5584 277° West 441 507 38,000  Level FlightAware Transoceanic
Sun 04:56:32 AM 32.5605 165.4147 277° West 441 507 38,000  Level FlightAware Transoceanic
Sun 04:57:32 AM 32.5753 165.2709 277° West 441 507 38,000  Level FlightAware Transoceanic
Sun 04:58:32 AM 32.5898 165.1271 277° West 441 507 38,000  Level FlightAware Transoceanic
Sun 04:59:32 AM 32.6043 164.9832 277° West 441 507 38,000  Level FlightAware Transoceanic
Sun 05:00:32 AM 32.6185 164.8393 277° West 441 507 38,000  Level FlightAware Transoceanic
Sun 05:01:32 AM 32.6326 164.6954 277° West 441 507 38,000  Level FlightAware Transoceanic
Sun 05:02:32 AM 32.6465 164.5514 277° West 441 507 38,000  Level FlightAware Transoceanic
Sun 05:03:32 AM 32.6603 164.4073 276° West 441 507 38,000  Level FlightAware Transoceanic
Sun 05:04:32 AM 32.6739 164.2632 276° West 441 507 38,000  Level FlightAware Transoceanic
Sun 05:05:32 AM 32.6873 164.1191 276° West 441 507 38,000  Level FlightAware Transoceanic
Sun 05:06:32 AM 32.7006 163.9749 276° West 441 507 38,000  Level FlightAware Transoceanic
Sun 05:07:32 AM 32.7137 163.8307 276° West 441 507 38,000  Level FlightAware Transoceanic
Sun 05:08:32 AM 32.7266 163.6864 276° West 441 507 38,000  Level FlightAware Transoceanic
Sun 05:09:32 AM 32.7394 163.5421 276° West 441 507 38,000  Level FlightAware Transoceanic
Sun 05:10:32 AM 32.7520 163.3978 276° West 441 507 38,000  Level FlightAware Transoceanic
Sun 05:11:32 AM 32.7644 163.2534 276° West 441 507 38,000  Level FlightAware Transoceanic
Sun 05:12:32 AM 32.7767 163.1090 276° West 441 507 38,000  Level FlightAware Transoceanic
Sun 05:13:32 AM 32.7888 162.9645 276° West 441 507 38,000  Level FlightAware Transoceanic
Sun 05:14:32 AM 32.8007 162.8200 276° West 441 507 38,000  Level FlightAware Transoceanic
Sun 05:15:32 AM 32.8125 162.6755 275° West 441 507 38,000  Level FlightAware Transoceanic
Sun 05:16:32 AM 32.8241 162.5309 275° West 441 507 38,000  Level FlightAware Transoceanic
Sun 05:17:32 AM 32.8356 162.3863 275° West 441 507 38,000  Level FlightAware Transoceanic
Sun 05:18:32 AM 32.8469 162.2416 275° West 441 507 38,000  Level FlightAware Transoceanic
Sun 05:19:32 AM 32.8580 162.0969 275° West 441 507 38,000  Level FlightAware Transoceanic
Sun 05:20:32 AM 32.8689 161.9522 275° West 441 507 38,000  Level FlightAware Transoceanic
Sun 05:21:32 AM 32.8797 161.8075 275° West 441 507 38,000  Level FlightAware Transoceanic
Sun 05:22:32 AM 32.8903 161.6627 275° West 441 507 38,000  Level FlightAware Transoceanic
Sun 05:23:32 AM 32.9007 161.5178 275° West 441 507 38,000  Level FlightAware Transoceanic
Sun 05:24:32 AM 32.9110 161.3730 275° West 441 507 38,000  Level FlightAware Transoceanic
Sun 05:25:32 AM 32.9211 161.2281 275° West 441 507 38,000  Level FlightAware Transoceanic
Sun 05:26:32 AM 32.9311 161.0831 275° West 441 507 38,000  Level FlightAware Transoceanic
Sun 05:27:32 AM 32.9408 160.9382 275° West 441 507 38,000  Level FlightAware Transoceanic
Sun 05:28:32 AM 32.9504 160.7932 274° West 441 507 38,000  Level FlightAware Transoceanic
Sun 05:29:32 AM 32.9599 160.6481 274° West 441 507 38,000  Level FlightAware Transoceanic
Sun 05:30:32 AM 32.9692 160.5031 274° West 441 507 38,000  Level FlightAware Transoceanic
Sun 05:31:32 AM 32.9783 160.3580 274° West 441 507 38,000  Level FlightAware Transoceanic
Sun 05:32:32 AM 32.9872 160.2129 274° West 441 507 38,000  Level FlightAware Transoceanic
Sun 05:33:32 AM 32.9960 160.0677 280° West 441 507 38,000  Level FlightAware Transoceanic
Sun 05:34:32 AM 33.0168 159.9315 286° West 441 507 38,000  Level FlightAware Transoceanic
Sun 05:35:32 AM 33.0482 159.8031 286° West 441 507 38,000  Level FlightAware Transoceanic
Sun 05:36:32 AM 33.0795 159.6746 286° West 441 507 38,000  Level FlightAware Transoceanic
Sun 05:37:32 AM 33.1106 159.5460 286° West 441 507 38,000  Level FlightAware Transoceanic
Sun 05:38:32 AM 33.1416 159.4173 286° West 441 507 38,000  Level FlightAware Transoceanic
Sun 05:39:32 AM 33.1725 159.2885 286° West 441 507 38,000  Level FlightAware Transoceanic
Sun 05:40:32 AM 33.2032 159.1596 286° West 441 507 38,000  Level FlightAware Transoceanic
Sun 05:41:32 AM 33.2338 159.0306 286° West 441 507 38,000  Level FlightAware Transoceanic
Sun 05:42:32 AM 33.2643 158.9015 286° West 441 507 38,000  Level FlightAware Transoceanic
Sun 05:43:32 AM 33.2946 158.7724 286° West 441 507 38,000  Level FlightAware Transoceanic
Sun 05:44:32 AM 33.3248 158.6431 286° West 441 507 38,000  Level FlightAware Transoceanic
Sun 05:45:32 AM 33.3549 158.5138 286° West 441 507 38,000  Level FlightAware Transoceanic
Sun 05:46:32 AM 33.3849 158.3844 285° West 441 507 38,000  Level FlightAware Transoceanic
Sun 05:47:32 AM 33.4147 158.2548 285° West 441 507 38,000  Level FlightAware Transoceanic
Sun 05:48:32 AM 33.4443 158.1252 285° West 441 507 38,000  Level FlightAware Transoceanic
Sun 05:49:32 AM 33.4739 157.9955 285° West 441 507 38,000  Level FlightAware Transoceanic
Sun 05:50:32 AM 33.5033 157.8658 285° West 441 507 38,000  Level FlightAware Transoceanic
Sun 05:51:32 AM 33.5325 157.7359 285° West 441 507 38,000  Level FlightAware Transoceanic
Sun 05:52:32 AM 33.5617 157.6059 285° West 441 507 38,000  Level FlightAware Transoceanic
Sun 05:53:32 AM 33.5906 157.4759 285° West 441 507 38,000  Level FlightAware Transoceanic
Sun 05:54:32 AM 33.6195 157.3458 285° West 441 507 38,000  Level FlightAware Transoceanic
Sun 05:55:32 AM 33.6482 157.2155 285° West 441 507 38,000  Level FlightAware Transoceanic
Sun 05:56:32 AM 33.6768 157.0852 285° West 441 507 38,000  Level FlightAware Transoceanic
Sun 05:57:32 AM 33.7053 156.9548 285° West 441 507 38,000  Level FlightAware Transoceanic
Sun 05:58:32 AM 33.7336 156.8244 285° West 441 507 38,000  Level FlightAware Transoceanic
Sun 05:59:32 AM 33.7617 156.6938 285° West 441 507 38,000  Level FlightAware Transoceanic
Sun 06:00:32 AM 33.7898 156.5632 284° West 441 507 38,000  Level FlightAware Transoceanic
Sun 06:01:32 AM 33.8177 156.4324 284° West 441 507 38,000  Level FlightAware Transoceanic
Sun 06:02:32 AM 33.8454 156.3016 284° West 441 507 38,000  Level FlightAware Transoceanic
Sun 06:03:32 AM 33.8731 156.1707 284° West 441 507 38,000  Level FlightAware Transoceanic
Sun 06:04:32 AM 33.9005 156.0397 284° West 441 507 38,000  Level FlightAware Transoceanic
Sun 06:05:32 AM 33.9279 155.9086 284° West 441 507 38,000  Level FlightAware Transoceanic
Sun 06:06:32 AM 33.9551 155.7775 284° West 441 507 38,000  Level FlightAware Transoceanic
Sun 06:07:32 AM 33.9821 155.6462 284° West 441 507 38,000  Level FlightAware Transoceanic
Sun 06:08:32 AM 34.0091 155.5149 284° West 441 507 38,000  Level FlightAware Transoceanic
Sun 06:09:32 AM 34.0359 155.3835 284° West 441 507 38,000  Level FlightAware Transoceanic
Sun 06:10:32 AM 34.0625 155.2520 284° West 441 507 38,000  Level FlightAware Transoceanic
Sun 06:11:32 AM 34.0890 155.1205 284° West 441 507 38,000  Level FlightAware Transoceanic
Sun 06:12:32 AM 34.1154 154.9888 284° West 441 507 38,000  Level FlightAware Transoceanic
Sun 06:13:32 AM 34.1416 154.8571 283° West 441 507 38,000  Level FlightAware Transoceanic
Sun 06:14:32 AM 34.1677 154.7252 283° West 441 507 38,000  Level FlightAware Transoceanic
Sun 06:15:32 AM 34.1936 154.5933 283° West 441 507 38,000  Level FlightAware Transoceanic
Sun 06:16:32 AM 34.2194 154.4614 283° West 441 507 38,000  Level FlightAware Transoceanic
Sun 06:17:32 AM 34.2451 154.3293 283° West 441 507 38,000  Level FlightAware Transoceanic
Sun 06:18:32 AM 34.2706 154.1971 283° West 441 507 38,000  Level FlightAware Transoceanic
Sun 06:19:32 AM 34.2960 154.0649 283° West 441 507 38,000  Level FlightAware Transoceanic
Sun 06:20:32 AM 34.3212 153.9326 283° West 441 507 38,000  Level FlightAware Transoceanic
Sun 06:21:32 AM 34.3463 153.8002 283° West 441 507 38,000  Level FlightAware Transoceanic
Sun 06:22:32 AM 34.3713 153.6678 283° West 441 507 38,000  Level FlightAware Transoceanic
Sun 06:23:32 AM 34.3961 153.5352 283° West 441 507 38,000  Level FlightAware Transoceanic
Sun 06:24:32 AM 34.4207 153.4026 283° West 441 507 38,000  Level FlightAware Transoceanic
Sun 06:25:32 AM 34.4453 153.2699 283° West 441 507 38,000  Level FlightAware Transoceanic
Sun 06:26:32 AM 34.4696 153.1372 283° West 441 507 38,000  Level FlightAware Transoceanic
Sun 06:27:32 AM 34.4939 153.0043 282° West 441 507 38,000  Level FlightAware Transoceanic
Sun 06:28:32 AM 34.5179 152.8714 282° West 441 507 38,000  Level FlightAware Transoceanic
Sun 06:29:32 AM 34.5419 152.7384 282° West 441 507 38,000  Level FlightAware Transoceanic
Sun 06:30:32 AM 34.5657 152.6053 282° West 441 507 38,000  Level FlightAware Transoceanic
Sun 06:31:32 AM 34.5894 152.4722 282° West 441 507 38,000  Level FlightAware Transoceanic
Sun 06:32:32 AM 34.6129 152.3389 282° West 441 507 38,000  Level FlightAware Transoceanic
Sun 06:33:32 AM 34.6362 152.2056 282° West 441 507 38,000  Level FlightAware Transoceanic
Sun 06:34:32 AM 34.6595 152.0722 282° West 441 507 38,000  Level FlightAware Transoceanic
Sun 06:35:32 AM 34.6825 151.9388 282° West 441 507 38,000  Level FlightAware Transoceanic
Sun 06:36:32 AM 34.7055 151.8053 282° West 441 507 38,000  Level FlightAware Transoceanic
Sun 06:37:32 AM 34.7282 151.6716 282° West 441 507 38,000  Level FlightAware Transoceanic
Sun 06:38:32 AM 34.7509 151.5380 282° West 441 507 38,000  Level FlightAware Transoceanic
Sun 06:39:32 AM 34.7734 151.4042 282° West 441 507 38,000  Level FlightAware Transoceanic
Sun 06:40:32 AM 34.7957 151.2704 281° West 441 507 38,000  Level FlightAware Transoceanic
Sun 06:41:32 AM 34.8179 151.1365 281° West 441 507 38,000  Level FlightAware Transoceanic
Sun 06:42:32 AM 34.8400 151.0025 281° West 441 507 38,000  Level FlightAware Transoceanic
Sun 06:43:32 AM 34.8619 150.8685 281° West 441 507 38,000  Level FlightAware Transoceanic
Sun 06:44:32 AM 34.8837 150.7344 281° West 441 507 38,000  Level FlightAware Transoceanic
Sun 06:45:32 AM 34.9053 150.6002 281° West 441 507 38,000  Level FlightAware Transoceanic
Sun 06:46:32 AM 34.9267 150.4659 281° West 441 507 38,000  Level FlightAware Transoceanic
Sun 06:47:32 AM 34.9481 150.3316 281° West 441 507 38,000  Level FlightAware Transoceanic
Sun 06:48:32 AM 34.9692 150.1972 281° West 441 507 38,000  Level FlightAware Transoceanic
Sun 06:49:32 AM 34.9902 150.0628 278° West 441 507 38,000  Level FlightAware Transoceanic
Sun 06:50:32 AM 35.0078 149.9181 276° West  Level FlightAware Approximate
Sun 06:51:32 AM 35.0194 149.7724 276° West  Level FlightAware Approximate
Sun 06:52:32 AM 35.0309 149.6266 275° West  Level FlightAware Approximate
Sun 06:53:32 AM 35.0422 149.4808 275° West  Level FlightAware Approximate
Sun 06:54:32 AM 35.0533 149.3350 275° West  Level FlightAware Approximate
Sun 06:55:32 AM 35.0642 149.1895 275° West  Level FlightAware Approximate
Sun 06:56:32 AM 35.0749 149.0439 275° West  Level FlightAware Approximate
Sun 06:57:32 AM 35.0855 148.8982 275° West  Level FlightAware Approximate
Sun 06:58:32 AM 35.0959 148.7525 275° West  Level FlightAware Approximate
Sun 06:59:32 AM 35.1061 148.6068 275° West  Level FlightAware Approximate
Sun 07:00:32 AM 35.1161 148.4611 275° West  Level FlightAware Approximate
Sun 07:01:32 AM 35.1260 148.3153 275° West  Level FlightAware Approximate
Sun 07:02:32 AM 35.1357 148.1695 275° West  Level FlightAware Approximate
Sun 07:03:32 AM 35.1452 148.0237 275° West  Level FlightAware Approximate
Sun 07:04:32 AM 35.1546 147.8778 274° West  Level FlightAware Approximate
Sun 07:05:32 AM 35.1637 147.7319 274° West  Level FlightAware Approximate
Sun 07:06:32 AM 35.1727 147.5859 274° West  Level FlightAware Approximate
Sun 07:07:32 AM 35.1815 147.4399 274° West  Level FlightAware Approximate
Sun 07:08:32 AM 35.1902 147.2939 274° West  Level FlightAware Approximate
Sun 07:09:32 AM 35.1987 147.1479 274° West  Level FlightAware Approximate
Sun 07:10:32 AM 35.2070 147.0018 274° West  Level FlightAware Approximate
Sun 07:11:32 AM 35.2151 146.8557 274° West  Level FlightAware Approximate
Sun 07:12:32 AM 35.2230 146.7096 274° West  Level FlightAware Approximate
Sun 07:13:32 AM 35.2308 146.5634 274° West  Level FlightAware Approximate
Sun 07:14:32 AM 35.2384 146.4172 274° West  Level FlightAware Approximate
Sun 07:15:32 AM 35.2458 146.2710 274° West  Level FlightAware Approximate
Sun 07:16:32 AM 35.2530 146.1248 273° West  Level FlightAware Approximate
Sun 07:17:32 AM 35.2601 145.9785 274° West  Level FlightAware Approximate
Sun 07:18:32 AM 35.2679 145.8323 274° West  Level FlightAware Approximate
Sun 07:19:32 AM 35.2756 145.6860 274° West  Level FlightAware Approximate
Sun 07:20:32 AM 35.2831 145.5397 274° West  Level FlightAware Approximate
Sun 07:21:32 AM 35.2904 145.3934 273° West  Level FlightAware Approximate
Sun 07:22:32 AM 35.2962 145.2485 275° West  Level FlightAware Approximate
Sun 07:23:32 AM 35.3056 145.1024 274° West  Level FlightAware Approximate
Sun 07:24:32 AM 35.3148 144.9562 274° West  Level FlightAware Approximate
Sun 07:25:32 AM 35.3238 144.8100 274° West  Level FlightAware Approximate
Sun 07:26:32 AM 35.3327 144.6643 274° West  Level FlightAware Approximate
Sun 07:27:32 AM 35.3413 144.5187 274° West  Level FlightAware Approximate
Sun 07:28:32 AM 35.3498 144.3730 274° West  Level FlightAware Approximate
Sun 07:29:32 AM 35.3581 144.2273 274° West  Level FlightAware Approximate
Sun 07:30:32 AM 35.3666 144.0815 274° West  Level FlightAware Approximate
Sun 07:31:32 AM 35.3750 143.9358 274° West  Level FlightAware Approximate
Sun 07:32:32 AM 35.3833 143.7900 274° West  Level FlightAware Approximate
Sun 07:33:32 AM 35.3911 143.6442 274° West  Level FlightAware Approximate
Sun 07:34:32 AM 35.3988 143.4984 274° West  Level FlightAware Approximate
Sun 07:35:32 AM 35.4063 143.3525 274° West  Level FlightAware Approximate
Sun 07:36:32 AM 35.4137 143.2066 273° West  Level FlightAware Approximate
Sun 07:37:32 AM 35.4208 143.0607 273° West  Level FlightAware Approximate
Sun 07:38:32 AM 35.4278 142.9147 273° West  Level FlightAware Approximate
Sun 07:39:32 AM 35.4346 142.7688 273° West  Level FlightAware Approximate
Sun 07:40:32 AM 35.4412 142.6228 273° West  Level FlightAware Approximate
Sun 07:41:32 AM 35.4477 142.4767 273° West  Level FlightAware Approximate
Sun 07:42:32 AM 35.4540 142.3307 273° West  Level FlightAware Approximate
Sun 07:43:32 AM 35.4601 142.1846 273° West  Level FlightAware Approximate
Sun 07:44:32 AM 35.4660 142.0385 273° West  Level FlightAware Approximate
Sun 07:45:32 AM 35.4718 141.8924 273° West  Level FlightAware Approximate
Sun 07:46:32 AM 35.4773 141.7463 239° Southwest  Level FlightAware Approximate
Sun 07:47:32 AM 35.4190 141.6296 275° West  Level FlightAware Approximate
Sun 07:48:32 AM 35.4295 141.4839 274° West  Level FlightAware Approximate
Sun 07:49:32 AM 35.4373 141.3380 275° West  Level FlightAware Approximate
Sun 07:50:32 AM 35.4476 141.1923 274° West  Level FlightAware Approximate
Sun 07:51:32 AM 35.4558 141.0465 275° West  Level FlightAware Approximate
Sun 07:52:32 AM 35.4660 140.9007 278° West  Level FlightAware Approximate
Sun 07:53:32 AM 35.4826 140.7559 276° West  Level FlightAware Approximate
Sun 07:54:32 AM 35.4950 140.6104 272° West  Level FlightAware Approximate
Sun 07:55:32 AM 35.5000 140.4644 276° West  Level FlightAware Approximate
Sun 07:56:32 AM 35.5115 140.3193 276° West  Level FlightAware Approximate
Sun 07:57:32 AM 35.5233 140.1740 275° West  Level FlightAware Approximate
Sun 07:58:32 AM 35.5333 140.0284 270° West  Level FlightAware Approximate
Sun 07:59:32 AM 35.5333 139.8820 280° West  Level FlightAware Approximate
Sun 08:00:32 AM 35.5500 139.7667 78° East  Level FlightAware Approximate
Sun 08:01:32 AM 35.5747 139.9099 97° East  Level Estimated
Sun 08:02:32 AM 35.4654 140.9034 275° West  Level FlightAware Approximate
Sun 08:03:32 AM 35.4754 140.7576 275° West  Level FlightAware Approximate
Sun 08:04:32 AM 35.4854 140.6118 275° West  Level FlightAware Approximate
Sun 08:05:32 AM 35.4951 140.4660 275° West  Level FlightAware Approximate
Sun 08:06:32 AM 35.5047 140.3201 275° West  Level FlightAware Approximate
Sun 08:07:32 AM 35.5141 140.1742 274° West  Level FlightAware Approximate
Sun 08:08:32 AM 35.5233 140.0283 274° West  Level FlightAware Approximate
Sun 08:09:32 AM 35.5324 139.8823 281° West  Level FlightAware Approximate
Sun 08:10:32 AM 35.5500 139.7667 78° East  Level FlightAware Approximate
Sun 08:11:32 AM 35.5747 139.9099 258° West  Level Estimated
Sun 08:12:32 AM 35.5501 139.7673 78° East  Level Estimated
Sun 08:13:32 AM 35.5747 139.9099 258° West  Level Estimated
Sun 08:14:32 AM 35.5500 139.7667 78° East  Level FlightAware Approximate
Sun 08:15:32 AM 35.5746 139.9093 258° West  Level Estimated
Sun 08:16:32 AM 35.5500 139.7667 78° East  Level FlightAware Approximate
Sun 08:17:32 AM 35.5747 139.9099 258° West  Level Estimated
Sun 08:18:32 AM 35.5500 139.7667 78° East  Level FlightAware Approximate
Sun 08:19:32 AM 35.5746 139.9093 258° West  Level Estimated
Sun 08:20:32 AM 35.5500 139.7667 78° East  Level FlightAware Approximate
Sun 08:21:32 AM 35.5746 139.9093 258° West  Level Estimated
Sun 08:22:32 AM 35.5500 139.7667 78° East  Level FlightAware Approximate
Sun 08:23:32 AM 35.5746 139.9093 258° West  Level Estimated
Sun 08:24:32 AM 35.5500 139.7667 78° East  Level FlightAware Approximate

Login

Don't have an account? Register now (free) for customized features, flight alerts, and more!